Time;durP1;ratioP1;P1;durP2;ratioP2;P2;SDS_P1;SDS_P2;PMS_P1;PMS_P2;Temp;Humidity;BMP_temperature;BMP_pressure;BME280_temperature;BME280_humidity;BME280_pressure;Samples;Min_cycle;Max_cycle;Signal;HPM_P1;HPM_P2
2023/07/29 00:01:06;;;;;;;0.37;0.37;;;;;16.40;95619.00;;;;5052764;28;20223;-57
2023/07/29 00:03:33;;;;;;;0.50;0.50;;;;;16.40;95611.00;;;;5052797;28;20199;-55
2023/07/29 00:06:01;;;;;;;0.40;0.40;;;;;16.50;95605.00;;;;5052741;28;20212;-55
2023/07/29 00:08:28;;;;;;;0.40;0.40;;;;;16.50;95615.00;;;;5052868;28;20203;-56
2023/07/29 00:10:55;;;;;;;0.70;0.70;;;;;16.40;95608.00;;;;5052795;28;20755;-56
2023/07/29 00:13:23;;;;;;;0.80;0.80;;;;;16.50;95605.00;;;;5052710;28;20196;-55
2023/07/29 00:15:54;;;;;;;0.60;0.60;;;;;16.50;95606.00;;;;5052950;28;20216;-55
2023/07/29 00:18:21;;;;;;;0.57;0.57;;;;;16.50;95598.00;;;;5052753;28;20211;-55
2023/07/29 00:20:49;;;;;;;0.43;0.43;;;;;16.50;95602.00;;;;5052621;28;20214;-56
2023/07/29 00:23:19;;;;;;;0.50;0.50;;;;;16.50;95605.00;;;;5052853;28;20617;-55
2023/07/29 00:25:47;;;;;;;0.50;0.50;;;;;16.50;95606.00;;;;5052733;28;20274;-55
2023/07/29 00:28:14;;;;;;;0.40;0.40;;;;;16.50;95605.00;;;;5052546;28;20188;-56
2023/07/29 00:30:42;;;;;;;0.60;0.60;;;;;16.50;95602.00;;;;5053870;28;20509;-56
2023/07/29 00:33:11;;;;;;;0.60;0.60;;;;;16.60;95608.00;;;;5052584;28;20274;-55
2023/07/29 00:35:38;;;;;;;0.60;0.60;;;;;16.60;95612.00;;;;5053206;28;20665;-55
2023/07/29 00:38:06;;;;;;;0.60;0.60;;;;;16.50;95611.00;;;;5052496;28;20200;-56
2023/07/29 00:40:37;;;;;;;0.50;0.50;;;;;16.60;95611.00;;;;5056365;28;20298;-55
2023/07/29 00:43:04;;;;;;;0.50;0.50;;;;;16.60;95602.00;;;;5056680;28;20188;-55
2023/07/29 00:45:33;;;;;;;0.60;0.60;;;;;16.60;95596.00;;;;5038421;28;20627;-55
2023/07/29 00:48:02;;;;;;;0.40;0.40;;;;;16.60;95595.00;;;;5056528;28;20271;-55
2023/07/29 00:50:33;;;;;;;0.50;0.50;;;;;16.60;95603.00;;;;5056644;28;20192;-56
2023/07/29 00:53:00;;;;;;;0.77;0.77;;;;;16.60;95596.00;;;;5056268;28;20183;-55
2023/07/29 00:55:29;;;;;;;0.70;0.70;;;;;16.60;95593.00;;;;5056089;28;20554;-57
2023/07/29 00:57:56;;;;;;;0.57;0.57;;;;;16.50;95595.00;;;;5056093;28;20296;-55
2023/07/29 01:00:24;;;;;;;1.20;1.10;;;;;16.50;95597.00;;;;5056255;28;20567;-56
2023/07/29 01:02:54;;;;;;;0.40;0.40;;;;;16.50;95588.00;;;;5056071;28;20192;-56
2023/07/29 01:05:22;;;;;;;0.80;0.80;;;;;16.50;95585.00;;;;5056083;28;20226;-55
2023/07/29 01:07:57;;;;;;;0.50;0.50;;;;;16.50;95588.00;;;;5037925;28;20721;-55
2023/07/29 01:10:36;;;;;;;0.60;0.60;;;;;16.40;95586.00;;;;5056269;28;20180;-55
2023/07/29 01:13:11;;;;;;;0.90;0.90;;;;;16.30;95586.00;;;;5056142;28;20582;-55
2023/07/29 01:15:45;;;;;;;0.50;0.50;;;;;16.30;95584.00;;;;5056080;28;20183;-56
2023/07/29 01:18:19;;;;;;;0.70;0.70;;;;;16.30;95589.00;;;;5055796;28;20301;-55
2023/07/29 01:20:48;;;;;;;0.50;0.50;;;;;16.30;95596.00;;;;5055992;28;20200;-55
2023/07/29 01:23:24;;;;;;;0.63;0.63;;;;;16.20;95583.00;;;;5055667;28;20650;-55
2023/07/29 01:25:51;;;;;;;0.60;0.60;;;;;16.10;95577.00;;;;5056460;28;20215;-56
2023/07/29 01:28:19;;;;;;;0.40;0.40;;;;;16.10;95563.00;;;;5055606;28;20192;-56
2023/07/29 01:30:49;;;;;;;0.40;0.40;;;;;16.10;95572.00;;;;5055629;28;20188;-55
2023/07/29 01:33:25;;;;;;;0.60;0.60;;;;;16.20;95568.00;;;;5055493;28;20198;-55
2023/07/29 01:35:55;;;;;;;0.50;0.50;;;;;16.10;95568.00;;;;5037382;28;20226;-55
2023/07/29 01:38:31;;;;;;;0.60;0.60;;;;;16.10;95560.00;;;;5055692;28;20259;-55
2023/07/29 01:41:02;;;;;;;0.40;0.40;;;;;16.00;95564.00;;;;5055507;28;20753;-55
2023/07/29 01:43:29;;;;;;;0.40;0.40;;;;;16.00;95561.00;;;;5055317;28;20185;-55
2023/07/29 01:45:57;;;;;;;0.50;0.50;;;;;16.00;95562.00;;;;5055222;28;20259;-55
2023/07/29 01:48:25;;;;;;;0.50;0.50;;;;;16.10;95559.00;;;;5055204;28;20546;-56
2023/07/29 01:50:52;;;;;;;0.40;0.40;;;;;16.10;95564.00;;;;5054169;28;20180;-56
2023/07/29 01:53:20;;;;;;;0.80;0.80;;;;;16.10;95561.00;;;;5055156;28;20195;-56
2023/07/29 01:55:48;;;;;;;0.73;0.73;;;;;16.10;95551.00;;;;5055247;28;21105;-56
2023/07/29 01:58:16;;;;;;;0.87;0.70;;;;;16.10;95552.00;;;;5055164;28;20199;-56
2023/07/29 02:00:44;;;;;;;0.43;0.43;;;;;16.10;95541.00;;;;5055158;28;20223;-56
2023/07/29 02:03:11;;;;;;;0.93;0.93;;;;;16.10;95546.00;;;;5055223;28;20196;-55
2023/07/29 02:05:38;;;;;;;0.50;0.50;;;;;16.10;95543.00;;;;5054813;28;20196;-56
2023/07/29 02:08:06;;;;;;;0.50;0.50;;;;;16.10;95543.00;;;;5054854;28;20200;-56
2023/07/29 02:10:33;;;;;;;0.43;0.43;;;;;16.10;95549.00;;;;5055021;28;20192;-56
2023/07/29 02:13:02;;;;;;;0.50;0.50;;;;;16.20;95542.00;;;;5055017;28;20188;-56
2023/07/29 02:15:29;;;;;;;0.40;0.40;;;;;16.10;95544.00;;;;5054666;28;20670;-56
2023/07/29 02:17:59;;;;;;;0.40;0.40;;;;;16.10;95540.00;;;;5054694;28;20199;-55
2023/07/29 02:20:26;;;;;;;0.50;0.50;;;;;16.10;95540.00;;;;5054557;28;20193;-56
2023/07/29 02:22:53;;;;;;;0.60;0.60;;;;;16.10;95543.00;;;;5036726;28;20196;-56
2023/07/29 02:25:21;;;;;;;0.53;0.53;;;;;16.00;95534.00;;;;5054561;28;20199;-56
2023/07/29 02:27:48;;;;;;;0.50;0.50;;;;;16.00;95540.00;;;;5054402;28;20215;-56
2023/07/29 02:30:17;;;;;;;0.70;0.70;;;;;16.00;95544.00;;;;5036556;28;20639;-56
2023/07/29 02:32:45;;;;;;;0.50;0.50;;;;;16.00;95536.00;;;;5054423;28;20192;-56
2023/07/29 02:35:12;;;;;;;0.40;0.40;;;;;16.00;95553.00;;;;5054213;28;20189;-56
2023/07/29 02:37:40;;;;;;;0.50;0.50;;;;;15.90;95548.00;;;;5054148;28;20705;-56
2023/07/29 02:40:08;;;;;;;0.73;0.73;;;;;15.80;95547.00;;;;5054433;28;20203;-56
2023/07/29 02:42:36;;;;;;;0.60;0.60;;;;;15.90;95542.00;;;;5054113;28;20254;-56
2023/07/29 02:45:03;;;;;;;0.80;0.80;;;;;15.80;95532.00;;;;5054122;28;20200;-56
2023/07/29 02:47:32;;;;;;;0.80;0.80;;;;;15.90;95527.00;;;;5054092;28;20216;-56
2023/07/29 02:49:59;;;;;;;0.53;0.53;;;;;15.90;95533.00;;;;5054022;28;20196;-56
2023/07/29 02:52:27;;;;;;;0.50;0.50;;;;;15.80;95527.00;;;;5054013;28;20185;-56
2023/07/29 02:57:30;;;;;;;0.50;0.50;;;;;15.90;95525.00;;;;5333404;22;20697;-59
2023/07/29 02:59:58;;;;;;;0.47;0.47;;;;;15.90;95524.00;;;;5054663;28;20203;-59
2023/07/29 03:02:25;;;;;;;0.70;0.70;;;;;16.00;95518.00;;;;5054266;28;20286;-58
2023/07/29 03:04:54;;;;;;;0.90;0.90;;;;;16.00;95512.00;;;;5053044;28;20203;-58
2023/07/29 03:07:21;;;;;;;0.60;0.60;;;;;16.10;95512.00;;;;5037454;28;20703;-59
2023/07/29 03:09:48;;;;;;;0.67;0.67;;;;;16.10;95512.00;;;;5034691;28;20272;-58
2023/07/29 03:12:16;;;;;;;0.40;0.40;;;;;16.10;95512.00;;;;5034359;28;20197;-58
2023/07/29 03:14:43;;;;;;;0.40;0.40;;;;;16.10;95516.00;;;;5034248;28;20242;-58
2023/07/29 03:17:10;;;;;;;0.40;0.40;;;;;16.20;95518.00;;;;5034662;28;20528;-58
2023/07/29 03:19:38;;;;;;;0.50;0.50;;;;;16.10;95508.00;;;;5034688;28;20647;-58
2023/07/29 03:22:06;;;;;;;0.50;0.50;;;;;16.20;95498.00;;;;5034042;28;20217;-58
2023/07/29 03:24:34;;;;;;;0.40;0.40;;;;;16.20;95506.00;;;;5034441;28;20529;-59
2023/07/29 03:27:01;;;;;;;0.60;0.60;;;;;16.20;95511.00;;;;5034218;28;20587;-58
2023/07/29 03:29:29;;;;;;;0.63;0.63;;;;;16.20;95512.00;;;;5034015;28;20215;-58
2023/07/29 03:31:56;;;;;;;0.67;0.67;;;;;16.20;95508.00;;;;5034599;28;20218;-58
2023/07/29 03:34:23;;;;;;;0.50;0.50;;;;;16.30;95522.00;;;;5034004;28;20689;-59
2023/07/29 03:36:51;;;;;;;0.63;0.63;;;;;16.30;95524.00;;;;5033904;28;20330;-60
2023/07/29 03:39:20;;;;;;;0.60;0.60;;;;;16.20;95520.00;;;;5033733;28;20192;-58
2023/07/29 03:41:47;;;;;;;0.50;0.50;;;;;16.20;95510.00;;;;5033785;28;20217;-58
2023/07/29 03:44:15;;;;;;;0.67;0.67;;;;;16.20;95508.00;;;;5033587;28;20189;-58
2023/07/29 03:46:42;;;;;;;0.50;0.50;;;;;16.20;95499.00;;;;5033469;28;20578;-58
2023/07/29 03:49:09;;;;;;;3.73;0.80;;;;;16.20;95493.00;;;;5033657;28;20200;-59
2023/07/29 03:51:37;;;;;;;0.97;0.97;;;;;16.20;95485.00;;;;5032139;28;20189;-58
2023/07/29 03:54:04;;;;;;;1.00;1.00;;;;;16.20;95501.00;;;;5033805;28;20205;-58
2023/07/29 03:56:35;;;;;;;1.07;1.07;;;;;16.20;95503.00;;;;5033795;28;20228;-60
2023/07/29 03:59:06;;;;;;;0.80;0.80;;;;;16.20;95498.00;;;;5033456;28;20716;-59
2023/07/29 04:01:34;;;;;;;0.50;0.50;;;;;16.20;95509.00;;;;5033548;28;20209;-58
2023/07/29 04:04:01;;;;;;;0.70;0.70;;;;;16.20;95515.00;;;;5033578;28;20196;-58
2023/07/29 04:06:28;;;;;;;0.50;0.50;;;;;16.30;95523.00;;;;5033651;28;20231;-58
2023/07/29 04:08:56;;;;;;;0.60;0.60;;;;;16.20;95527.00;;;;5033416;28;20185;-59
2023/07/29 04:11:23;;;;;;;0.50;0.50;;;;;16.10;95511.00;;;;5033562;28;20199;-58
2023/07/29 04:13:52;;;;;;;0.67;0.67;;;;;16.10;95499.00;;;;5032760;28;20196;-58
2023/07/29 04:16:19;;;;;;;0.50;0.50;;;;;16.00;95508.00;;;;5031848;28;20270;-58
2023/07/29 04:18:47;;;;;;;0.70;0.70;;;;;16.00;95512.00;;;;5033274;28;20647;-59
2023/07/29 04:21:14;;;;;;;0.80;0.80;;;;;15.90;95517.00;;;;5033276;28;20196;-59
2023/07/29 04:23:42;;;;;;;0.60;0.60;;;;;16.00;95514.00;;;;5033771;28;20204;-58
2023/07/29 04:26:09;;;;;;;0.60;0.60;;;;;16.10;95514.00;;;;5033158;28;20213;-58
2023/07/29 04:28:37;;;;;;;0.60;0.60;;;;;15.90;95524.00;;;;5033170;28;20204;-58
2023/07/29 04:31:05;;;;;;;0.50;0.50;;;;;15.90;95526.00;;;;5033728;28;20582;-58
2023/07/29 04:33:33;;;;;;;0.60;0.60;;;;;15.90;95534.00;;;;5033134;28;20274;-58
2023/07/29 04:36:01;;;;;;;0.70;0.70;;;;;16.00;95526.00;;;;5033059;28;20209;-58
2023/07/29 04:38:32;;;;;;;0.50;0.50;;;;;15.90;95533.00;;;;5033165;28;20193;-59
2023/07/29 04:41:01;;;;;;;0.63;0.63;;;;;15.70;95525.00;;;;5033475;28;20667;-58
2023/07/29 04:43:29;;;;;;;0.50;0.50;;;;;15.90;95501.00;;;;5033066;28;20228;-58
2023/07/29 04:45:56;;;;;;;0.77;0.77;;;;;15.90;95491.00;;;;5033270;28;20212;-58
2023/07/29 04:48:25;;;;;;;0.60;0.60;;;;;16.00;95496.00;;;;5032960;28;20193;-58
2023/07/29 04:50:52;;;;;;;0.53;0.53;;;;;16.10;95492.00;;;;5033035;28;20208;-59
2023/07/29 04:53:20;;;;;;;0.40;0.40;;;;;16.10;95488.00;;;;5033054;28;20188;-58
2023/07/29 04:55:47;;;;;;;2.13;1.67;;;;;16.20;95482.00;;;;5032956;28;20560;-58
2023/07/29 04:58:14;;;;;;;0.60;0.60;;;;;16.30;95481.00;;;;5032881;28;20205;-58
2023/07/29 05:00:42;;;;;;;0.50;0.50;;;;;16.40;95484.00;;;;5032894;28;20254;-59
2023/07/29 05:03:09;;;;;;;0.70;0.70;;;;;16.40;95486.00;;;;5033014;28;20259;-58
2023/07/29 05:05:38;;;;;;;0.63;0.63;;;;;16.50;95485.00;;;;5032883;28;20192;-58
2023/07/29 05:08:06;;;;;;;0.60;0.60;;;;;16.50;95494.00;;;;5033264;28;20192;-59
2023/07/29 05:10:33;;;;;;;0.47;0.47;;;;;16.70;95500.00;;;;5031518;28;20204;-59
2023/07/29 05:13:00;;;;;;;0.50;0.50;;;;;16.80;95500.00;;;;5032773;28;20181;-59
2023/07/29 05:15:28;;;;;;;0.50;0.50;;;;;16.80;95496.00;;;;5032913;28;20656;-59
2023/07/29 05:17:55;;;;;;;0.70;0.70;;;;;16.80;95489.00;;;;5032795;28;20205;-57
2023/07/29 05:20:23;;;;;;;0.63;0.63;;;;;16.80;95495.00;;;;5032713;28;20268;-58
2023/07/29 05:22:51;;;;;;;0.70;0.70;;;;;16.80;95486.00;;;;5032818;28;20565;-59
2023/07/29 05:25:19;;;;;;;0.40;0.40;;;;;16.90;95488.00;;;;5033049;28;20193;-58
2023/07/29 05:27:46;;;;;;;0.43;0.43;;;;;16.90;95496.00;;;;5036077;28;20223;-58
2023/07/29 05:30:14;;;;;;;0.50;0.50;;;;;17.00;95492.00;;;;5036285;28;20193;-58
2023/07/29 05:32:41;;;;;;;0.67;0.67;;;;;17.00;95493.00;;;;5036296;28;20547;-58
2023/07/29 05:35:09;;;;;;;2.13;0.97;;;;;17.00;95490.00;;;;5036275;28;20193;-58
2023/07/29 05:37:40;;;;;;;0.97;0.70;;;;;17.00;95488.00;;;;5036322;28;20220;-58
2023/07/29 05:40:09;;;;;;;0.60;0.60;;;;;17.00;95491.00;;;;5036276;28;20220;-58
2023/07/29 05:42:37;;;;;;;0.50;0.50;;;;;17.00;95482.00;;;;5035850;28;20279;-58
2023/07/29 05:45:05;;;;;;;0.40;0.40;;;;;17.00;95487.00;;;;5036167;28;20216;-58
2023/07/29 05:47:33;;;;;;;0.50;0.50;;;;;17.10;95480.00;;;;5035774;28;20220;-58
2023/07/29 05:50:04;;;;;;;0.53;0.53;;;;;17.20;95479.00;;;;5034471;28;20644;-58
2023/07/29 05:52:31;;;;;;;0.63;0.63;;;;;17.40;95483.00;;;;5035830;28;20205;-58
2023/07/29 05:54:59;;;;;;;0.40;0.40;;;;;17.40;95477.00;;;;5034504;28;20338;-58
2023/07/29 05:57:27;;;;;;;0.53;0.53;;;;;17.50;95481.00;;;;5034480;28;20229;-59
2023/07/29 05:59:55;;;;;;;0.63;0.63;;;;;17.60;95486.00;;;;5035927;28;20250;-58
2023/07/29 06:02:23;;;;;;;0.50;0.50;;;;;17.60;95484.00;;;;5035837;28;20217;-60
2023/07/29 06:04:50;;;;;;;0.40;0.40;;;;;17.80;95485.00;;;;5035745;28;20192;-59
2023/07/29 06:07:17;;;;;;;0.40;0.40;;;;;17.70;95482.00;;;;5035608;28;20217;-60
2023/07/29 06:09:45;;;;;;;0.50;0.50;;;;;17.80;95489.00;;;;5036277;28;20196;-58
2023/07/29 06:12:12;;;;;;;0.50;0.50;;;;;17.80;95491.00;;;;5035368;28;20200;-59
2023/07/29 06:14:41;;;;;;;1.00;0.90;;;;;17.80;95504.00;;;;5035608;28;20690;-59
2023/07/29 06:17:11;;;;;;;0.40;0.40;;;;;17.70;95508.00;;;;5035389;28;20584;-58
2023/07/29 06:19:38;;;;;;;0.50;0.50;;;;;17.90;95519.00;;;;5035442;28;20504;-59
2023/07/29 06:22:06;;;;;;;0.70;0.70;;;;;17.90;95527.00;;;;5035101;28;20212;-58
2023/07/29 06:24:34;;;;;;;0.40;0.40;;;;;17.90;95532.00;;;;5035063;28;20193;-58
2023/07/29 06:27:01;;;;;;;0.67;0.67;;;;;17.80;95525.00;;;;5035011;28;20224;-59
2023/07/29 06:29:29;;;;;;;0.60;0.60;;;;;17.70;95524.00;;;;5035263;28;20231;-58
2023/07/29 06:31:59;;;;;;;0.40;0.40;;;;;17.60;95516.00;;;;5035723;28;20192;-59
2023/07/29 06:34:26;;;;;;;0.70;0.70;;;;;17.50;95523.00;;;;5035150;28;20193;-58
2023/07/29 06:36:53;;;;;;;0.40;0.40;;;;;17.50;95532.00;;;;5034664;28;20212;-58
2023/07/29 06:39:21;;;;;;;0.50;0.50;;;;;17.60;95532.00;;;;5034837;28;20196;-58
2023/07/29 06:41:48;;;;;;;0.57;0.57;;;;;17.60;95541.00;;;;5034643;28;20208;-58
2023/07/29 06:44:16;;;;;;;0.70;0.70;;;;;17.50;95546.00;;;;5034970;28;20589;-58
2023/07/29 06:46:43;;;;;;;0.50;0.50;;;;;17.60;95547.00;;;;5034626;28;20223;-59
2023/07/29 06:49:12;;;;;;;0.60;0.60;;;;;17.70;95542.00;;;;5034661;28;20189;-59
2023/07/29 06:51:39;;;;;;;0.40;0.40;;;;;17.70;95544.00;;;;5034527;28;20189;-59
2023/07/29 06:54:07;;;;;;;0.50;0.50;;;;;17.70;95551.00;;;;5034823;28;20188;-58
2023/07/29 06:56:34;;;;;;;0.40;0.40;;;;;17.70;95556.00;;;;5034402;28;20698;-58
2023/07/29 06:59:02;;;;;;;0.77;0.77;;;;;17.70;95553.00;;;;5034469;28;20224;-58
2023/07/29 07:01:29;;;;;;;0.60;0.60;;;;;17.60;95541.00;;;;5034659;28;20205;-59
2023/07/29 07:03:58;;;;;;;0.50;0.50;;;;;17.60;95532.00;;;;5034506;28;20220;-59
2023/07/29 07:06:27;;;;;;;0.83;0.83;;;;;17.70;95525.00;;;;5034770;28;20304;-59
2023/07/29 07:08:54;;;;;;;0.60;0.60;;;;;17.70;95515.00;;;;5034252;28;20193;-58
2023/07/29 07:11:21;;;;;;;0.70;0.70;;;;;17.90;95524.00;;;;5034189;28;20193;-59
2023/07/29 07:13:49;;;;;;;0.70;0.70;;;;;18.10;95537.00;;;;5034218;28;20193;-58
2023/07/29 07:16:16;;;;;;;0.80;0.60;;;;;18.10;95539.00;;;;5034157;28;20220;-58
2023/07/29 07:18:44;;;;;;;0.50;0.50;;;;;18.20;95546.00;;;;5034017;28;20195;-58
2023/07/29 07:21:11;;;;;;;0.43;0.43;;;;;18.10;95541.00;;;;5034026;28;20218;-58
2023/07/29 07:23:40;;;;;;;0.50;0.50;;;;;18.00;95536.00;;;;5034399;28;20216;-58
2023/07/29 07:26:08;;;;;;;0.40;0.40;;;;;18.20;95527.00;;;;5033868;28;20216;-59
2023/07/29 07:28:35;;;;;;;0.50;0.50;;;;;18.30;95537.00;;;;5034177;28;20208;-58
2023/07/29 07:31:02;;;;;;;0.40;0.40;;;;;18.20;95533.00;;;;5034121;28;20201;-58
2023/07/29 07:33:30;;;;;;;0.50;0.50;;;;;18.30;95522.00;;;;5034091;28;20203;-58
2023/07/29 07:35:57;;;;;;;0.43;0.43;;;;;18.30;95523.00;;;;5032486;28;20701;-59
2023/07/29 07:38:25;;;;;;;0.77;0.77;;;;;18.70;95529.00;;;;5033787;28;20204;-59
2023/07/29 07:40:57;;;;;;;0.50;0.50;;;;;18.50;95525.00;;;;5033868;28;20197;-59
2023/07/29 07:43:25;;;;;;;0.60;0.60;;;;;18.60;95531.00;;;;5033947;28;20259;-59
2023/07/29 07:45:58;;;;;;;0.50;0.50;;;;;18.70;95530.00;;;;5033555;28;20216;-59
2023/07/29 07:48:25;;;;;;;0.60;0.60;;;;;18.60;95520.00;;;;5033309;28;20181;-58
2023/07/29 07:50:53;;;;;;;0.40;0.40;;;;;18.80;95525.00;;;;5033704;28;20315;-58
2023/07/29 07:53:20;;;;;;;0.40;0.40;;;;;19.00;95524.00;;;;5033396;28;20603;-58
2023/07/29 07:55:48;;;;;;;0.50;0.50;;;;;19.10;95521.00;;;;5033861;28;20623;-59
2023/07/29 07:58:17;;;;;;;0.60;0.60;;;;;19.20;95533.00;;;;5033560;28;20575;-59
2023/07/29 08:00:44;;;;;;;0.57;0.57;;;;;19.20;95540.00;;;;5033461;28;20184;-58
2023/07/29 08:03:12;;;;;;;0.60;0.60;;;;;19.10;95543.00;;;;5033540;28;20224;-58
2023/07/29 08:05:39;;;;;;;0.50;0.50;;;;;19.10;95533.00;;;;5033823;28;20656;-58
2023/07/29 08:08:07;;;;;;;0.70;0.70;;;;;19.20;95552.00;;;;5032051;28;20188;-58
2023/07/29 08:10:34;;;;;;;0.50;0.50;;;;;19.20;95549.00;;;;5032110;28;20208;-58
2023/07/29 08:13:02;;;;;;;0.60;0.60;;;;;18.90;95543.00;;;;5033878;28;20259;-58
2023/07/29 08:15:30;;;;;;;0.67;0.67;;;;;18.90;95552.00;;;;5033448;28;20193;-59
2023/07/29 08:17:58;;;;;;;0.40;0.40;;;;;19.30;95555.00;;;;5033419;28;20199;-58
2023/07/29 08:20:25;;;;;;;0.50;0.50;;;;;18.90;95553.00;;;;5033382;28;20656;-58
2023/07/29 08:22:53;;;;;;;0.50;0.50;;;;;19.20;95559.00;;;;5033620;28;20220;-58
2023/07/29 08:25:20;;;;;;;0.50;0.50;;;;;19.30;95571.00;;;;5033355;28;20259;-58
2023/07/29 08:27:48;;;;;;;0.60;0.60;;;;;19.20;95562.00;;;;5033465;28;20213;-58
2023/07/29 08:30:15;;;;;;;1.27;1.20;;;;;19.20;95564.00;;;;5033449;28;20193;-58
2023/07/29 08:32:44;;;;;;;0.57;0.57;;;;;19.40;95572.00;;;;5033323;28;20189;-58
2023/07/29 08:35:12;;;;;;;0.50;0.50;;;;;19.60;95573.00;;;;5033734;28;20197;-58
2023/07/29 08:37:39;;;;;;;0.50;0.50;;;;;19.70;95574.00;;;;5033162;28;20212;-60
2023/07/29 08:40:08;;;;;;;0.60;0.60;;;;;19.70;95569.00;;;;5032300;28;20203;-59
2023/07/29 08:42:38;;;;;;;0.40;0.40;;;;;20.00;95570.00;;;;5033090;28;20192;-58
2023/07/29 08:45:08;;;;;;;0.87;0.87;;;;;19.90;95572.00;;;;5033363;28;20215;-58
2023/07/29 08:47:36;;;;;;;0.73;0.73;;;;;19.90;95568.00;;;;5033104;28;20221;-58
2023/07/29 08:50:06;;;;;;;0.40;0.40;;;;;20.30;95565.00;;;;5033041;28;20246;-59
2023/07/29 08:52:35;;;;;;;0.40;0.40;;;;;20.50;95569.00;;;;5033039;28;20250;-58
2023/07/29 08:55:03;;;;;;;0.60;0.60;;;;;20.80;95562.00;;;;5033068;28;20184;-58
2023/07/29 08:57:31;;;;;;;0.40;0.40;;;;;20.80;95571.00;;;;5032965;28;20221;-58
2023/07/29 09:00:00;;;;;;;0.70;0.70;;;;;20.70;95573.00;;;;5034198;28;20280;-58
2023/07/29 09:02:27;;;;;;;0.80;0.80;;;;;20.30;95559.00;;;;5036956;28;20197;-58
2023/07/29 09:04:54;;;;;;;0.50;0.50;;;;;20.80;95552.00;;;;5036755;28;20201;-58
2023/07/29 09:07:23;;;;;;;0.40;0.40;;;;;20.60;95550.00;;;;5036451;28;20284;-58
2023/07/29 09:09:51;;;;;;;1.60;1.50;;;;;20.60;95548.00;;;;5036428;28;20196;-58
2023/07/29 09:12:18;;;;;;;0.80;0.80;;;;;20.80;95546.00;;;;5036341;28;20193;-59
2023/07/29 09:14:46;;;;;;;0.40;0.40;;;;;20.70;95537.00;;;;5036356;28;20189;-59
2023/07/29 09:17:15;;;;;;;0.47;0.47;;;;;20.80;95533.00;;;;5036389;28;20229;-58
2023/07/29 09:19:42;;;;;;;0.83;0.83;;;;;21.10;95536.00;;;;5036413;28;20204;-59
2023/07/29 09:22:19;;;;;;;0.50;0.50;;;;;21.30;95541.00;;;;5036286;28;20556;-59
2023/07/29 09:24:49;;;;;;;0.60;0.60;;;;;21.20;95529.00;;;;5036786;28;20200;-59
2023/07/29 09:27:26;;;;;;;0.40;0.40;;;;;20.90;95543.00;;;;5036550;28;20213;-58
2023/07/29 09:29:54;;;;;;;0.80;0.80;;;;;21.00;95543.00;;;;5036156;28;20185;-58
2023/07/29 09:32:23;;;;;;;0.63;0.63;;;;;21.00;95533.00;;;;5036404;28;20199;-58
2023/07/29 09:34:50;;;;;;;0.70;0.70;;;;;21.10;95533.00;;;;5036061;28;20541;-58
2023/07/29 09:37:18;;;;;;;0.63;0.63;;;;;21.10;95529.00;;;;5035955;28;20216;-58
2023/07/29 09:39:48;;;;;;;0.50;0.50;;;;;21.50;95525.00;;;;5034532;28;20283;-58
2023/07/29 09:42:20;;;;;;;1.37;0.60;;;;;21.90;95529.00;;;;5035972;28;20656;-58
2023/07/29 09:44:49;;;;;;;0.50;0.50;;;;;21.60;95522.00;;;;5035797;28;20205;-58
2023/07/29 09:47:24;;;;;;;0.53;0.53;;;;;21.40;95530.00;;;;5034434;28;20706;-58
2023/07/29 09:49:52;;;;;;;0.60;0.60;;;;;21.20;95533.00;;;;5035696;28;20286;-58
2023/07/29 09:52:22;;;;;;;0.53;0.53;;;;;21.60;95546.00;;;;5035608;28;20199;-58
2023/07/29 09:54:51;;;;;;;0.87;0.87;;;;;21.60;95550.00;;;;5035977;28;20215;-58
2023/07/29 09:57:20;;;;;;;0.63;0.63;;;;;21.50;95535.00;;;;5035397;28;20220;-59
2023/07/29 09:59:55;;;;;;;0.52;0.52;;;;;21.60;95542.00;;;;5035529;28;20197;-58
2023/07/29 10:02:25;;;;;;;0.60;0.60;;;;;21.60;95552.00;;;;5035767;28;20181;-58
2023/07/29 10:04:53;;;;;;;0.68;0.68;;;;;21.60;95545.00;;;;5035361;28;20282;-58
2023/07/29 10:07:21;;;;;;;0.60;0.60;;;;;21.80;95552.00;;;;5035419;28;20213;-57
2023/07/29 10:09:52;;;;;;;1.05;1.05;;;;;21.90;95566.00;;;;5035369;28;20201;-57
2023/07/29 10:12:21;;;;;;;0.90;0.90;;;;;21.90;95573.00;;;;5034703;28;20231;-57
2023/07/29 10:14:50;;;;;;;0.40;0.40;;;;;21.90;95576.00;;;;5035491;28;20722;-58
2023/07/29 10:17:19;;;;;;;0.60;0.60;;;;;21.90;95574.00;;;;5035896;28;20208;-57
2023/07/29 10:19:48;;;;;;;0.40;0.40;;;;;22.00;95575.00;;;;5035556;28;20192;-59
2023/07/29 10:22:21;;;;;;;0.43;0.43;;;;;22.10;95559.00;;;;5035317;28;20189;-56
2023/07/29 10:24:51;;;;;;;0.50;0.50;;;;;22.00;95569.00;;;;5035534;28;20654;-57
2023/07/29 10:27:20;;;;;;;0.50;0.50;;;;;22.00;95579.00;;;;5033667;28;20687;-57
2023/07/29 10:29:47;;;;;;;0.50;0.50;;;;;22.10;95577.00;;;;5035181;28;20184;-57
2023/07/29 10:32:16;;;;;;;0.70;0.70;;;;;22.20;95565.00;;;;5033675;28;20196;-58
2023/07/29 10:34:44;;;;;;;0.90;0.90;;;;;22.20;95569.00;;;;5034933;28;20192;-57
2023/07/29 10:37:12;;;;;;;0.60;0.60;;;;;22.20;95568.00;;;;5034789;28;20215;-58
2023/07/29 10:39:40;;;;;;;0.80;0.80;;;;;22.20;95554.00;;;;5034767;28;20215;-59
2023/07/29 10:42:09;;;;;;;0.60;0.60;;;;;22.60;95553.00;;;;5035289;28;20267;-58
2023/07/29 10:44:51;;;;;;;0.50;0.50;;;;;22.40;95560.00;;;;5034611;28;20221;-57
2023/07/29 10:47:20;;;;;;;0.47;0.47;;;;;22.60;95565.00;;;;5035074;28;20218;-59
2023/07/29 10:49:50;;;;;;;0.40;0.40;;;;;23.20;95563.00;;;;5035040;28;20200;-57
2023/07/29 10:52:28;;;;;;;0.55;0.55;;;;;23.40;95568.00;;;;5034772;28;20562;-58
2023/07/29 10:54:58;;;;;;;0.80;0.80;;;;;23.40;95569.00;;;;5034640;28;20177;-59
2023/07/29 10:57:34;;;;;;;0.43;0.43;;;;;23.70;95551.00;;;;5034507;28;20564;-59
2023/07/29 11:00:04;;;;;;;0.50;0.50;;;;;24.00;95558.00;;;;5034619;28;20546;-58
2023/07/29 11:02:33;;;;;;;0.85;0.77;;;;;23.50;95566.00;;;;5034290;28;20690;-57
2023/07/29 11:05:05;;;;;;;0.52;0.52;;;;;24.00;95548.00;;;;5034681;28;20212;-57
2023/07/29 11:07:43;;;;;;;0.40;0.40;;;;;24.20;95547.00;;;;5034293;28;20220;-57
2023/07/29 11:10:12;;;;;;;0.65;0.65;;;;;24.40;95553.00;;;;5034361;28;20192;-57
2023/07/29 11:12:47;;;;;;;0.75;0.75;;;;;24.40;95564.00;;;;5034159;28;20203;-57
2023/07/29 11:15:20;;;;;;;0.50;0.50;;;;;24.20;95546.00;;;;5033995;28;20246;-57
2023/07/29 11:17:49;;;;;;;0.50;0.50;;;;;24.10;95567.00;;;;5033897;28;20212;-58
2023/07/29 11:20:17;;;;;;;0.80;0.80;;;;;23.80;95551.00;;;;5033880;28;20199;-58
2023/07/29 11:22:45;;;;;;;1.27;1.17;;;;;24.00;95554.00;;;;5034213;28;20516;-58
2023/07/29 11:25:14;;;;;;;0.52;0.52;;;;;23.40;95538.00;;;;5034408;28;20221;-57
2023/07/29 11:27:43;;;;;;;0.68;0.68;;;;;23.60;95527.00;;;;5033868;28;20226;-57
2023/07/29 11:30:12;;;;;;;0.95;0.95;;;;;23.50;95530.00;;;;5033728;28;20200;-58
2023/07/29 11:32:41;;;;;;;0.60;0.60;;;;;23.50;95543.00;;;;5033885;28;20204;-58
2023/07/29 11:35:12;;;;;;;0.60;0.60;;;;;23.60;95554.00;;;;5033938;28;20185;-58
2023/07/29 11:37:40;;;;;;;0.70;0.70;;;;;23.90;95552.00;;;;5034325;28;20270;-58
2023/07/29 11:40:10;;;;;;;0.82;0.82;;;;;23.90;95549.00;;;;5033651;28;20663;-58
2023/07/29 11:42:38;;;;;;;0.70;0.70;;;;;23.90;95537.00;;;;5033628;28;20192;-58
2023/07/29 11:45:09;;;;;;;0.68;0.68;;;;;24.40;95538.00;;;;5033645;28;20247;-58
2023/07/29 11:47:37;;;;;;;0.50;0.50;;;;;24.00;95546.00;;;;5033654;28;20235;-58
2023/07/29 11:50:07;;;;;;;0.50;0.50;;;;;23.90;95534.00;;;;5033612;28;20668;-58
2023/07/29 11:52:36;;;;;;;1.00;1.00;;;;;24.40;95537.00;;;;5033594;28;20255;-58
2023/07/29 11:55:04;;;;;;;0.70;0.70;;;;;24.20;95553.00;;;;5033673;28;20197;-58
2023/07/29 11:57:32;;;;;;;0.50;0.50;;;;;24.70;95519.00;;;;5033689;28;20216;-58
2023/07/29 11:59:59;;;;;;;0.60;0.60;;;;;25.20;95537.00;;;;5033456;28;20193;-58
2023/07/29 12:02:28;;;;;;;0.82;0.82;;;;;24.90;95532.00;;;;5033490;28;20204;-58
2023/07/29 12:04:57;;;;;;;0.60;0.60;;;;;24.80;95541.00;;;;5033249;28;20734;-58
2023/07/29 12:07:25;;;;;;;0.80;0.80;;;;;24.70;95545.00;;;;5033303;28;20212;-58
2023/07/29 12:09:53;;;;;;;0.73;0.73;;;;;24.10;95535.00;;;;5033334;28;20204;-58
2023/07/29 12:12:24;;;;;;;0.80;0.80;;;;;24.20;95533.00;;;;5033525;28;20204;-57
2023/07/29 12:14:51;;;;;;;0.68;0.68;;;;;24.20;95538.00;;;;5033264;28;20188;-60
2023/07/29 12:17:20;;;;;;;0.50;0.50;;;;;24.30;95525.00;;;;5033259;28;20227;-59
2023/07/29 12:19:48;;;;;;;0.75;0.75;;;;;24.70;95554.00;;;;5033610;28;20621;-58
2023/07/29 12:22:20;;;;;;;1.35;1.25;;;;;24.10;95539.00;;;;5033412;28;20197;-58
2023/07/29 12:24:48;;;;;;;0.55;0.55;;;;;23.80;95549.00;;;;5033246;28;20200;-58
2023/07/29 12:27:16;;;;;;;0.40;0.40;;;;;23.80;95537.00;;;;5033184;28;20264;-58